Time;durP1;ratioP1;P1;durP2;ratioP2;P2;SDS_P1;SDS_P2;PMS_P1;PMS_P2;Temp;Humidity;BMP_temperature;BMP_pressure;BME280_temperature;BME280_humidity;BME280_pressure;Samples;Min_cycle;Max_cycle;Signal;HPM_P1;HPM_P2
2022/03/12 00:01:00;;;;;;;6.57;3.90;;;-1.90;47.30;;;;;;5112597;28;20015;-78
2022/03/12 00:03:26;;;;;;;6.07;3.67;;;-1.90;47.40;;;;;;5112591;28;20050;-79
2022/03/12 00:05:59;;;;;;;6.97;4.78;;;-1.90;47.40;;;;;;5094243;28;20023;-78
2022/03/12 00:08:43;;;;;;;8.43;4.93;;;-2.00;47.60;;;;;;5112503;28;20027;-78
2022/03/12 00:11:14;;;;;;;5.15;3.80;;;-2.00;47.80;;;;;;5095307;28;20515;-79
2022/03/12 00:13:41;;;;;;;6.70;3.25;;;-2.00;48.20;;;;;;5092984;28;20477;-79
2022/03/12 00:16:12;;;;;;;8.85;4.20;;;-2.00;48.40;;;;;;5091942;28;20054;-78
2022/03/12 00:18:39;;;;;;;7.32;4.25;;;-2.10;48.50;;;;;;5091388;28;20017;-78
2022/03/12 00:21:06;;;;;;;7.10;3.80;;;-2.10;48.70;;;;;;5091926;28;20156;-78
2022/03/12 00:23:32;;;;;;;10.52;4.88;;;-2.00;48.90;;;;;;5091841;28;20547;-79
2022/03/12 00:25:59;;;;;;;11.87;5.67;;;-2.00;49.10;;;;;;5091857;28;20500;-78
2022/03/12 00:28:26;;;;;;;8.13;4.40;;;-2.00;49.20;;;;;;5090970;28;20643;-80
2022/03/12 00:30:52;;;;;;;6.38;3.65;;;-2.00;49.40;;;;;;5091998;28;20452;-80
2022/03/12 00:33:20;;;;;;;8.50;4.45;;;-1.90;49.50;;;;;;5092115;28;20031;-81
2022/03/12 00:35:52;;;;;;;11.35;4.13;;;-1.90;49.70;;;;;;5091937;28;20020;-79
2022/03/12 00:38:21;;;;;;;8.90;3.45;;;-1.90;49.80;;;;;;5073570;28;20058;-78
2022/03/12 00:40:47;;;;;;;10.80;4.65;;;-1.90;49.90;;;;;;5091697;28;20020;-78
2022/03/12 00:43:14;;;;;;;10.45;3.58;;;-1.90;50.20;;;;;;5091768;28;20074;-79
2022/03/12 00:45:40;;;;;;;10.07;4.43;;;-1.90;50.30;;;;;;5072700;28;20107;-80
2022/03/12 00:48:06;;;;;;;12.73;4.00;;;-1.90;50.50;;;;;;5075675;28;20112;-80
2022/03/12 00:50:32;;;;;;;12.35;4.22;;;-1.90;50.80;;;;;;5077327;28;20028;-79
2022/03/12 00:52:59;;;;;;;12.48;4.80;;;-1.90;51.00;;;;;;5073669;28;20020;-79
2022/03/12 00:55:24;;;;;;;8.02;4.72;;;-1.90;51.10;;;;;;5072972;28;20136;-78
2022/03/12 00:57:50;;;;;;;5.78;3.92;;;-1.90;51.60;;;;;;5091859;28;20102;-81
2022/03/12 01:00:19;;;;;;;8.77;3.60;;;-1.90;52.00;;;;;;5073660;28;20481;-80
2022/03/12 01:02:45;;;;;;;5.72;4.18;;;-1.90;52.50;;;;;;5073954;28;20025;-79
2022/03/12 01:05:15;;;;;;;7.07;4.45;;;-2.00;52.80;;;;;;5072308;28;20075;-80
2022/03/12 01:07:41;;;;;;;6.50;3.72;;;-2.00;53.20;;;;;;5071842;28;20486;-79
2022/03/12 01:10:07;;;;;;;9.52;3.90;;;-2.00;53.20;;;;;;5084885;28;20114;-79
2022/03/12 01:12:33;;;;;;;8.55;4.85;;;-2.00;53.70;;;;;;5091727;28;20354;-80
2022/03/12 01:14:59;;;;;;;9.35;4.40;;;-2.00;54.30;;;;;;5091380;28;20047;-80
2022/03/12 01:17:25;;;;;;;10.02;4.10;;;-2.00;54.60;;;;;;5083851;28;20030;-80
2022/03/12 01:19:51;;;;;;;6.75;3.78;;;-2.00;54.60;;;;;;5071475;28;20416;-80
2022/03/12 01:22:20;;;;;;;8.02;5.20;;;-2.00;55.10;;;;;;5053470;28;20024;-80
2022/03/12 01:24:49;;;;;;;9.98;4.72;;;-2.00;55.10;;;;;;5091525;28;20028;-79
2022/03/12 01:27:15;;;;;;;8.18;4.97;;;-1.90;55.30;;;;;;5076213;28;20013;-79
2022/03/12 01:29:43;;;;;;;7.55;4.25;;;-1.90;55.40;;;;;;5093478;28;20028;-79
2022/03/12 01:32:09;;;;;;;7.65;4.60;;;-1.90;55.40;;;;;;5075998;28;20027;-76
2022/03/12 01:34:36;;;;;;;9.55;4.70;;;-1.80;56.10;;;;;;5095062;28;20119;-78
2022/03/12 01:37:02;;;;;;;8.73;4.03;;;-1.80;55.90;;;;;;5075909;28;20539;-78
2022/03/12 01:39:28;;;;;;;6.97;4.72;;;-1.80;56.30;;;;;;5080883;28;20207;-79
2022/03/12 01:41:54;;;;;;;8.20;4.70;;;-1.80;56.70;;;;;;5075490;28;20095;-80
2022/03/12 01:44:21;;;;;;;10.80;3.83;;;-1.80;56.70;;;;;;5075556;28;20021;-77
2022/03/12 01:46:48;;;;;;;9.43;4.93;;;-1.80;56.70;;;;;;5079438;28;20021;-78
2022/03/12 01:50:04;;;;;;;9.45;3.83;;;-1.80;57.00;;;;;;5097577;28;20393;-78
2022/03/12 01:52:30;;;;;;;6.30;4.28;;;-1.70;57.70;;;;;;5096078;28;20020;-80
2022/03/12 01:54:56;;;;;;;6.50;3.95;;;-1.80;59.10;;;;;;5074879;28;20107;-79
2022/03/12 01:57:22;;;;;;;5.80;3.55;;;-1.80;60.50;;;;;;5056750;28;20075;-80
2022/03/12 01:59:49;;;;;;;6.57;3.42;;;-1.70;60.80;;;;;;5084715;28;20497;-79
2022/03/12 02:02:16;;;;;;;10.45;5.47;;;-1.70;61.10;;;;;;5094802;28;20036;-77
2022/03/12 02:04:51;;;;;;;6.22;3.67;;;-1.60;61.00;;;;;;5077018;28;20020;-79
2022/03/12 02:07:17;;;;;;;7.60;3.67;;;-1.60;61.60;;;;;;5083036;28;20083;-78
2022/03/12 02:09:44;;;;;;;8.43;3.92;;;-1.60;61.90;;;;;;5082407;28;20131;-79
2022/03/12 02:12:11;;;;;;;4.82;3.45;;;-1.60;62.00;;;;;;5103383;28;20020;-78
2022/03/12 02:14:37;;;;;;;6.30;3.50;;;-1.60;62.30;;;;;;5097175;28;20397;-77
2022/03/12 02:17:11;;;;;;;5.43;3.60;;;-1.60;62.40;;;;;;5095614;28;20028;-80
2022/03/12 02:19:39;;;;;;;7.43;4.18;;;-1.60;62.60;;;;;;5094178;28;20068;-80
2022/03/12 02:22:08;;;;;;;6.25;4.35;;;-1.60;62.90;;;;;;5089637;28;20016;-79
2022/03/12 02:24:36;;;;;;;7.18;4.55;;;-1.60;63.00;;;;;;5074065;28;20016;-79
2022/03/12 02:27:04;;;;;;;7.35;4.28;;;-1.60;63.10;;;;;;5083655;28;20262;-78
2022/03/12 02:29:30;;;;;;;8.30;4.32;;;-1.60;63.20;;;;;;5094175;28;20081;-78
2022/03/12 02:32:09;;;;;;;8.40;4.30;;;-1.50;63.30;;;;;;5094185;28;20038;-77
2022/03/12 02:34:47;;;;;;;8.32;4.28;;;-1.50;63.50;;;;;;5076028;28;20027;-78
2022/03/12 02:37:40;;;;;;;8.30;3.75;;;-1.50;63.60;;;;;;5093971;28;20020;-78
2022/03/12 02:40:05;;;;;;;5.65;3.42;;;-1.50;63.40;;;;;;5088792;28;20497;-77
2022/03/12 02:42:36;;;;;;;7.38;3.92;;;-1.50;63.80;;;;;;5055424;28;20065;-79
2022/03/12 02:45:04;;;;;;;6.47;3.40;;;-1.50;63.60;;;;;;5073699;28;20064;-76
2022/03/12 02:47:32;;;;;;;7.47;4.05;;;-1.50;63.80;;;;;;5086043;28;20028;-78
2022/03/12 02:50:02;;;;;;;8.70;3.80;;;-1.50;63.90;;;;;;5093830;28;20460;-80
2022/03/12 02:52:29;;;;;;;11.10;6.18;;;-1.50;64.10;;;;;;5075560;28;20028;-80
2022/03/12 02:54:57;;;;;;;7.43;4.00;;;-1.60;64.10;;;;;;5093720;28;20029;-82
2022/03/12 02:57:26;;;;;;;5.15;3.63;;;-1.60;64.10;;;;;;5083622;28;20029;-80
2022/03/12 02:59:53;;;;;;;7.82;3.92;;;-1.60;64.30;;;;;;5074173;28;20028;-80
2022/03/12 03:02:39;;;;;;;7.57;3.95;;;-1.60;64.40;;;;;;5075191;28;20471;-80
2022/03/12 03:08:03;;;;;;;6.32;3.88;;;-1.60;64.70;;;;;;5094930;28;20020;-80
2022/03/12 03:10:34;;;;;;;7.13;3.85;;;-1.60;64.60;;;;;;5093703;28;20031;-80
2022/03/12 03:13:16;;;;;;;6.80;4.40;;;-1.60;64.60;;;;;;5092457;28;20028;-79
2022/03/12 03:15:49;;;;;;;11.02;7.18;;;-1.60;64.80;;;;;;5075149;28;20036;-80
2022/03/12 03:18:21;;;;;;;6.20;4.20;;;-1.60;64.70;;;;;;5093138;28;20028;-80
2022/03/12 03:20:49;;;;;;;6.55;4.05;;;-1.60;64.70;;;;;;5093186;28;20020;-78
2022/03/12 03:23:15;;;;;;;6.82;4.18;;;-1.60;64.80;;;;;;5093044;28;20028;-79
2022/03/12 03:25:41;;;;;;;5.53;3.50;;;-1.50;64.80;;;;;;5093583;28;20378;-78
2022/03/12 03:28:07;;;;;;;7.53;3.88;;;-1.50;64.70;;;;;;5097298;28;20024;-77
2022/03/12 03:30:36;;;;;;;11.50;4.53;;;-1.50;64.70;;;;;;5079511;28;20036;-79
2022/03/12 03:33:05;;;;;;;5.93;4.18;;;-1.50;64.60;;;;;;5072659;28;20025;-79
2022/03/12 03:35:31;;;;;;;8.07;3.88;;;-1.40;64.60;;;;;;5072749;28;20028;-79
2022/03/12 03:37:57;;;;;;;4.93;3.20;;;-1.40;64.70;;;;;;5072475;28;20075;-80
2022/03/12 03:40:24;;;;;;;4.22;3.13;;;-1.40;64.70;;;;;;5072742;28;20334;-79
2022/03/12 03:42:50;;;;;;;8.98;3.55;;;-1.40;64.70;;;;;;5054675;28;20031;-78
2022/03/12 03:45:22;;;;;;;6.47;4.18;;;-1.40;65.10;;;;;;5072075;28;20157;-79
2022/03/12 03:47:50;;;;;;;8.85;4.72;;;-1.40;65.70;;;;;;5091237;28;20031;-79
2022/03/12 03:50:18;;;;;;;8.02;3.78;;;-1.50;65.80;;;;;;5096431;28;20082;-79
2022/03/12 03:52:44;;;;;;;4.72;3.10;;;-1.50;66.10;;;;;;5093803;28;20062;-79
2022/03/12 03:55:10;;;;;;;6.90;3.25;;;-1.50;66.60;;;;;;5092512;28;20079;-79
2022/03/12 03:57:36;;;;;;;4.93;3.47;;;-1.60;66.80;;;;;;5075160;28;20059;-78
2022/03/12 04:00:03;;;;;;;5.32;3.67;;;-1.60;67.20;;;;;;5078050;28;20046;-79
2022/03/12 04:02:29;;;;;;;6.57;3.35;;;-1.60;68.20;;;;;;5095467;28;20020;-77
2022/03/12 04:04:54;;;;;;;7.20;3.17;;;-1.60;68.10;;;;;;5075131;28;20028;-79
2022/03/12 04:07:21;;;;;;;8.13;3.67;;;-1.60;68.00;;;;;;5091556;28;20047;-78
2022/03/12 04:09:46;;;;;;;5.05;3.45;;;-1.50;68.10;;;;;;5091914;28;20571;-79
2022/03/12 04:12:12;;;;;;;7.65;4.45;;;-1.50;68.30;;;;;;5092030;28;20169;-78
2022/03/12 04:14:38;;;;;;;8.45;4.68;;;-1.50;69.00;;;;;;5091896;28;20519;-79
2022/03/12 04:17:05;;;;;;;10.32;4.22;;;-1.50;68.60;;;;;;5092305;28;20020;-79
2022/03/12 04:19:34;;;;;;;6.57;4.28;;;-1.40;68.50;;;;;;5091931;28;20405;-78
2022/03/12 04:22:01;;;;;;;5.25;3.20;;;-1.40;68.30;;;;;;5089661;28;20385;-78
2022/03/12 04:24:27;;;;;;;7.03;3.70;;;-1.40;68.20;;;;;;5053592;28;20020;-79
2022/03/12 04:26:53;;;;;;;4.80;3.65;;;-1.50;68.40;;;;;;5073061;28;20527;-79
2022/03/12 04:29:19;;;;;;;14.35;5.03;;;-1.50;68.40;;;;;;5074331;28;20043;-79
2022/03/12 04:31:47;;;;;;;9.27;5.03;;;-1.40;68.60;;;;;;5092034;28;20485;-78
2022/03/12 04:34:14;;;;;;;7.53;4.40;;;-1.40;68.50;;;;;;5092132;28;20484;-80
2022/03/12 04:36:44;;;;;;;5.32;4.10;;;-1.30;68.40;;;;;;5069453;28;20142;-79
2022/03/12 04:39:11;;;;;;;6.03;3.85;;;-1.30;68.60;;;;;;5052190;28;20035;-79
2022/03/12 04:41:39;;;;;;;;;;;-1.30;68.50;;;;;;5053195;28;20529;-78
2022/03/12 04:44:08;;;;;;;8.50;4.25;;;-1.30;68.00;;;;;;5069497;28;19904;-79
2022/03/12 04:46:35;;;;;;;7.63;4.45;;;-1.20;68.30;;;;;;5064773;28;20033;-79
2022/03/12 04:49:02;;;;;;;7.13;4.13;;;-1.20;68.40;;;;;;5050878;28;20025;-78
2022/03/12 04:51:29;;;;;;;8.23;4.18;;;-1.20;68.80;;;;;;5051239;28;20060;-79
2022/03/12 04:54:01;;;;;;;8.23;5.22;;;-1.20;68.80;;;;;;5051038;28;20030;-79
2022/03/12 04:56:27;;;;;;;8.80;4.25;;;-1.20;69.00;;;;;;5037068;28;20450;-79
2022/03/12 04:58:54;;;;;;;9.30;4.43;;;-1.20;69.00;;;;;;5069559;28;20074;-79
2022/03/12 05:01:24;;;;;;;5.77;4.50;;;-1.20;69.10;;;;;;5052290;28;20393;-80
2022/03/12 05:03:50;;;;;;;8.05;4.80;;;-1.20;69.00;;;;;;5068884;28;20032;-79
2022/03/12 05:06:17;;;;;;;8.30;6.18;;;-1.10;69.00;;;;;;5072134;28;20159;-82
2022/03/12 05:08:43;;;;;;;7.97;5.70;;;-1.10;68.90;;;;;;5057204;28;20032;-79
2022/03/12 05:11:09;;;;;;;14.45;6.85;;;-1.10;68.80;;;;;;5057237;28;20036;-80
2022/03/12 05:13:35;;;;;;;7.70;6.50;;;-1.00;68.80;;;;;;5073362;28;20130;-79
2022/03/12 05:16:03;;;;;;;8.38;5.13;;;-0.90;68.80;;;;;;5095055;28;20360;-80
2022/03/12 05:18:30;;;;;;;6.65;3.60;;;-0.90;68.60;;;;;;5096604;28;20028;-78
2022/03/12 05:20:57;;;;;;;5.87;3.23;;;-0.90;68.50;;;;;;5103849;28;20024;-79
2022/03/12 05:23:23;;;;;;;10.77;4.85;;;-0.90;68.60;;;;;;5095885;28;20267;-78
2022/03/12 05:25:50;;;;;;;7.88;4.65;;;-0.90;68.80;;;;;;5095323;28;20112;-80
2022/03/12 05:28:22;;;;;;;9.13;3.85;;;-0.90;68.90;;;;;;5082180;28;20024;-79
2022/03/12 05:30:49;;;;;;;8.65;4.35;;;-0.90;68.80;;;;;;5074763;28;20036;-78
2022/03/12 05:33:16;;;;;;;6.82;3.95;;;-0.90;68.90;;;;;;5061916;28;20366;-80
2022/03/12 05:35:44;;;;;;;9.13;4.78;;;-0.80;68.90;;;;;;5095138;28;20028;-78
2022/03/12 05:38:11;;;;;;;6.80;4.10;;;-0.80;69.00;;;;;;5094935;28;20064;-81
2022/03/12 05:40:39;;;;;;;6.47;3.28;;;-0.80;69.10;;;;;;5094234;28;20024;-78
2022/03/12 05:43:12;;;;;;;6.88;4.40;;;-0.70;68.90;;;;;;5095012;28;20028;-79
2022/03/12 05:45:39;;;;;;;8.50;5.78;;;-0.60;68.90;;;;;;5075880;28;20081;-80
2022/03/12 05:48:09;;;;;;;8.32;4.43;;;-0.60;68.60;;;;;;5092218;28;20393;-80
2022/03/12 05:50:36;;;;;;;5.90;3.60;;;-0.60;68.60;;;;;;5075468;28;20036;-79
2022/03/12 05:53:02;;;;;;;7.18;4.40;;;-0.50;68.50;;;;;;5094679;28;20397;-78
2022/03/12 05:55:28;;;;;;;10.50;5.70;;;-0.50;68.50;;;;;;5094680;28;20392;-78
2022/03/12 05:57:54;;;;;;;10.55;5.82;;;-0.40;68.60;;;;;;5094713;28;20024;-79
2022/03/12 06:00:20;;;;;;;6.65;4.85;;;-0.30;68.60;;;;;;5076762;28;20024;-79
2022/03/12 06:02:52;;;;;;;6.93;4.45;;;-0.20;68.50;;;;;;5096453;28;20016;-78
2022/03/12 06:05:24;;;;;;;10.13;4.90;;;-0.20;68.20;;;;;;5096597;28;20016;-79
2022/03/12 06:07:54;;;;;;;10.40;6.07;;;-0.20;68.00;;;;;;5080277;28;20031;-79
2022/03/12 06:10:25;;;;;;;10.88;5.30;;;-0.10;68.10;;;;;;5076306;28;20036;-78
2022/03/12 06:12:53;;;;;;;8.07;4.78;;;-0.10;68.10;;;;;;5077896;28;20025;-79
2022/03/12 06:15:21;;;;;;;10.45;5.38;;;-0.10;68.00;;;;;;5077872;28;20421;-79
2022/03/12 06:17:49;;;;;;;8.50;4.53;;;-0.10;68.20;;;;;;5075060;28;20032;-80
2022/03/12 06:20:20;;;;;;;8.13;5.38;;;-0.20;68.40;;;;;;5087886;28;20032;-80
2022/03/12 06:22:47;;;;;;;9.68;5.22;;;-0.10;68.90;;;;;;5093424;28;20028;-80
2022/03/12 06:25:16;;;;;;;9.07;5.45;;;-0.20;69.30;;;;;;5094454;28;20051;-81
2022/03/12 06:27:47;;;;;;;7.65;4.50;;;-0.20;70.60;;;;;;5076038;28;20051;-80
2022/03/12 06:30:14;;;;;;;11.05;6.10;;;-0.40;70.50;;;;;;5092346;28;20366;-80
2022/03/12 06:32:43;;;;;;;12.10;4.72;;;-0.60;71.40;;;;;;5093799;28;20020;-80
2022/03/12 06:35:12;;;;;;;9.73;5.85;;;-0.50;71.90;;;;;;5093840;28;20485;-79
2022/03/12 06:37:40;;;;;;;9.18;5.25;;;-0.50;72.50;;;;;;5077634;28;20035;-80
2022/03/12 06:40:11;;;;;;;8.00;5.43;;;-0.50;72.90;;;;;;5060908;28;20040;-79
2022/03/12 06:42:39;;;;;;;8.00;4.85;;;-0.50;73.20;;;;;;5085751;28;20484;-80
2022/03/12 06:45:07;;;;;;;8.52;5.13;;;-0.50;73.10;;;;;;5093594;28;20032;-80
2022/03/12 06:47:33;;;;;;;10.70;5.32;;;-0.50;73.70;;;;;;5072278;28;20032;-78
2022/03/12 06:50:00;;;;;;;9.18;4.72;;;-0.60;73.60;;;;;;5073719;28;20481;-79
2022/03/12 06:52:28;;;;;;;9.82;5.30;;;-0.50;73.70;;;;;;5077953;28;20067;-80
2022/03/12 06:54:55;;;;;;;8.73;5.82;;;-0.40;73.60;;;;;;5093758;28;20090;-81
2022/03/12 06:57:22;;;;;;;10.82;5.38;;;-0.30;73.40;;;;;;5076895;28;20035;-77
2022/03/12 06:59:48;;;;;;;13.87;5.63;;;-0.30;73.30;;;;;;5055728;28;20501;-77
2022/03/12 07:02:14;;;;;;;10.80;5.97;;;-0.30;73.20;;;;;;5093202;28;20091;-79
2022/03/12 07:04:40;;;;;;;8.18;6.45;;;-0.20;73.20;;;;;;5093006;28;20036;-78
2022/03/12 07:07:06;;;;;;;11.43;6.22;;;-0.20;73.20;;;;;;5093345;28;20086;-79
2022/03/12 07:09:34;;;;;;;9.90;5.43;;;-0.20;73.30;;;;;;5075113;28;20032;-78
2022/03/12 07:12:03;;;;;;;10.82;6.20;;;-0.20;73.60;;;;;;5091043;28;20456;-78
2022/03/12 07:14:30;;;;;;;12.85;7.70;;;-0.20;73.70;;;;;;5094776;28;20044;-78
2022/03/12 07:16:56;;;;;;;23.42;13.65;;;-0.20;73.80;;;;;;5093581;28;20030;-77
2022/03/12 07:19:22;;;;;;;12.18;8.05;;;-0.20;73.90;;;;;;5093573;28;20096;-77
2022/03/12 07:21:51;;;;;;;11.90;6.60;;;-0.10;74.10;;;;;;5061855;28;20123;-79
2022/03/12 07:24:18;;;;;;;9.48;5.80;;;-0.10;74.40;;;;;;5078265;28;20023;-78
2022/03/12 07:26:54;;;;;;;14.30;7.05;;;-0.30;74.70;;;;;;5092962;28;20027;-80
2022/03/12 07:29:19;;;;;;;7.85;5.60;;;-0.40;75.80;;;;;;5071270;28;20032;-78
2022/03/12 07:31:45;;;;;;;14.18;5.00;;;-0.50;76.30;;;;;;5072729;28;20043;-78
2022/03/12 07:34:11;;;;;;;7.95;5.72;;;-0.40;76.30;;;;;;5054667;28;20044;-80
2022/03/12 07:36:37;;;;;;;9.85;5.40;;;-0.20;76.20;;;;;;5072436;28;20060;-79
2022/03/12 07:39:03;;;;;;;12.27;5.93;;;0.00;75.90;;;;;;5078250;28;20073;-78
2022/03/12 07:41:30;;;;;;;13.45;7.30;;;0.20;75.30;;;;;;5093163;28;20048;-78
2022/03/12 07:43:56;;;;;;;9.55;5.78;;;0.40;74.80;;;;;;5086171;28;20361;-86
2022/03/12 07:46:22;;;;;;;12.38;5.43;;;0.60;73.60;;;;;;5075151;28;20040;-84
2022/03/12 07:48:49;;;;;;;13.63;6.80;;;0.60;73.30;;;;;;5094551;28;20030;-89
2022/03/12 07:51:15;;;;;;;10.07;7.00;;;0.70;72.80;;;;;;5060477;28;20504;-85
2022/03/12 07:53:41;;;;;;;13.07;7.03;;;0.70;72.70;;;;;;5077030;28;20272;-83
2022/03/12 07:56:08;;;;;;;13.93;8.60;;;0.70;72.60;;;;;;5095110;28;20044;-84
2022/03/12 07:58:36;;;;;;;13.98;8.05;;;0.70;72.40;;;;;;5091407;28;20077;-86
2022/03/12 08:01:03;;;;;;;12.30;8.18;;;0.60;72.40;;;;;;5096739;28;20104;-91
2022/03/12 08:03:29;;;;;;;14.70;7.72;;;0.60;72.50;;;;;;5071128;28;20028;-88
2022/03/12 08:05:55;;;;;;;15.38;8.25;;;0.40;72.90;;;;;;5079889;28;20040;-88
2022/03/12 08:08:21;;;;;;;13.75;7.30;;;0.40;73.30;;;;;;5073453;28;20469;-89
2022/03/12 08:13:31;;;;;;;12.35;7.38;;;0.30;73.70;;;;;;5088857;28;20059;-87
2022/03/12 08:15:59;;;;;;;13.45;7.38;;;0.40;73.40;;;;;;5094912;28;20473;-83
2022/03/12 08:18:25;;;;;;;12.38;6.75;;;0.50;73.10;;;;;;5074314;28;20758;-80
2022/03/12 08:20:52;;;;;;;16.00;7.90;;;0.50;72.70;;;;;;5072857;28;20051;-80
2022/03/12 08:23:19;;;;;;;10.95;7.90;;;0.50;72.50;;;;;;5073960;28;20021;-78
2022/03/12 08:25:45;;;;;;;12.30;7.47;;;0.60;72.70;;;;;;5083267;28;20024;-82
2022/03/12 08:28:11;;;;;;;14.25;7.57;;;0.70;72.60;;;;;;5091561;28;20059;-81
2022/03/12 08:30:37;;;;;;;9.70;6.80;;;0.90;72.50;;;;;;5092635;28;20389;-80
2022/03/12 08:33:03;;;;;;;12.05;7.13;;;1.00;71.60;;;;;;5092210;28;20012;-81
2022/03/12 08:35:29;;;;;;;15.85;8.38;;;1.00;71.50;;;;;;5093052;28;20024;-81
2022/03/12 08:37:55;;;;;;;14.85;8.18;;;0.90;70.90;;;;;;5076276;28;20085;-79
2022/03/12 08:40:25;;;;;;;10.75;7.40;;;0.80;71.30;;;;;;5094843;28;20028;-78
2022/03/12 08:42:52;;;;;;;12.82;8.13;;;0.70;71.70;;;;;;5095844;28;20028;-77
2022/03/12 08:45:19;;;;;;;11.52;5.63;;;0.60;72.30;;;;;;5077503;28;20033;-79
2022/03/12 08:47:45;;;;;;;13.07;7.60;;;0.50;72.50;;;;;;5095850;28;20755;-76
2022/03/12 08:50:11;;;;;;;11.95;8.30;;;0.20;73.30;;;;;;5094313;28;20193;-76
2022/03/12 08:52:38;;;;;;;12.55;8.75;;;0.30;73.80;;;;;;5077727;28;20016;-77
2022/03/12 08:55:06;;;;;;;10.88;7.35;;;0.40;73.60;;;;;;5095314;28;20376;-79
2022/03/12 08:57:31;;;;;;;11.18;7.93;;;0.70;73.80;;;;;;5077690;28;20043;-77
2022/03/12 08:59:57;;;;;;;8.60;7.03;;;0.80;72.40;;;;;;5095345;28;20024;-78
2022/03/12 09:02:23;;;;;;;11.32;6.90;;;0.90;71.80;;;;;;5095534;28;20048;-76
2022/03/12 09:04:50;;;;;;;10.75;6.25;;;1.00;72.30;;;;;;5094880;28;20094;-77
2022/03/12 09:07:16;;;;;;;10.80;6.53;;;1.20;71.30;;;;;;5097630;28;20058;-78
2022/03/12 09:09:41;;;;;;;14.57;8.65;;;1.30;70.20;;;;;;5096649;28;20086;-78
2022/03/12 09:12:08;;;;;;;12.85;7.70;;;1.40;69.50;;;;;;5076120;28;20024;-76
2022/03/12 09:14:35;;;;;;;10.40;6.60;;;1.30;69.40;;;;;;5087905;28;20088;-77
2022/03/12 09:17:05;;;;;;;9.00;7.33;;;1.20;69.90;;;;;;5095208;28;20016;-75
2022/03/12 09:19:32;;;;;;;10.30;7.32;;;1.20;69.80;;;;;;5076811;28;20576;-76
2022/03/12 09:21:58;;;;;;;21.35;8.95;;;1.10;70.30;;;;;;5095458;28;20021;-74
2022/03/12 09:24:24;;;;;;;9.68;7.20;;;0.90;70.40;;;;;;5095027;28;20157;-76
2022/03/12 09:26:50;;;;;;;16.02;8.73;;;0.80;70.80;;;;;;5076568;28;20017;-77
2022/03/12 09:29:16;;;;;;;10.48;7.03;;;0.90;70.90;;;;;;5075905;28;20032;-77
2022/03/12 09:31:42;;;;;;;25.70;14.30;;;1.00;70.80;;;;;;5077392;28;20024;-77
2022/03/12 09:34:09;;;;;;;14.05;7.00;;;1.00;70.80;;;;;;5074029;28;20044;-75
2022/03/12 09:36:36;;;;;;;10.23;6.50;;;0.90;70.80;;;;;;5073874;28;20029;-76
2022/03/12 09:39:04;;;;;;;10.55;6.53;;;0.70;71.20;;;;;;5073923;28;20421;-77
2022/03/12 09:41:30;;;;;;;;;;;0.80;71.20;;;;;;5074374;28;20021;-74
2022/03/12 09:43:56;;;;;;;8.27;5.35;;;0.60;71.00;;;;;;5074092;28;19915;-75
2022/03/12 09:46:22;;;;;;;10.18;5.85;;;0.50;71.50;;;;;;5055980;28;20028;-77
2022/03/12 09:48:48;;;;;;;13.05;7.70;;;0.30;72.20;;;;;;5088479;28;20074;-76
2022/03/12 09:51:14;;;;;;;14.55;7.50;;;0.20;72.90;;;;;;5092859;28;20036;-77
2022/03/12 09:53:41;;;;;;;12.55;8.23;;;0.10;73.60;;;;;;5093694;28;20038;-77
2022/03/12 09:56:06;;;;;;;12.20;7.18;;;0.10;74.20;;;;;;5093897;28;20027;-76
2022/03/12 09:58:32;;;;;;;13.13;8.10;;;0.10;74.10;;;;;;5093813;28;20384;-75
2022/03/12 10:00:58;;;;;;;11.80;7.10;;;0.20;73.90;;;;;;5094052;28;20099;-77
2022/03/12 10:03:24;;;;;;;11.88;7.75;;;0.30;73.30;;;;;;5089934;28;20069;-76
2022/03/12 10:05:50;;;;;;;10.95;6.65;;;0.40;72.90;;;;;;5074192;28;20025;-79
2022/03/12 10:08:17;;;;;;;7.93;6.88;;;0.50;72.60;;;;;;5075270;28;20029;-77
2022/03/12 10:10:43;;;;;;;8.43;5.83;;;0.50;72.40;;;;;;5056105;28;20405;-75
2022/03/12 10:13:10;;;;;;;9.60;6.60;;;0.50;72.30;;;;;;5073865;28;20049;-78
2022/03/12 10:15:37;;;;;;;11.73;6.57;;;0.60;72.40;;;;;;5073271;28;20393;-79
2022/03/12 10:18:03;;;;;;;8.88;6.35;;;0.80;72.20;;;;;;5073471;28;20028;-78
2022/03/12 10:20:30;;;;;;;12.43;7.53;;;0.80;71.60;;;;;;5073268;28;20020;-75
2022/03/12 10:22:56;;;;;;;9.13;5.93;;;0.90;71.80;;;;;;5073282;28;20029;-77
2022/03/12 10:25:23;;;;;;;12.35;6.50;;;0.90;71.50;;;;;;5055209;28;20055;-77
2022/03/12 10:27:49;;;;;;;11.77;7.15;;;1.00;70.90;;;;;;5073453;28;20082;-75
2022/03/12 10:30:15;;;;;;;11.85;7.30;;;1.10;70.90;;;;;;5073415;28;20118;-77
2022/03/12 10:32:45;;;;;;;13.82;8.75;;;1.20;70.60;;;;;;5055760;28;20496;-77
2022/03/12 10:35:14;;;;;;;8.93;6.25;;;1.40;70.20;;;;;;5074644;28;20028;-76
2022/03/12 10:37:40;;;;;;;11.85;6.95;;;1.50;69.60;;;;;;5075483;28;20107;-76
2022/03/12 10:40:21;;;;;;;9.57;6.82;;;1.50;69.30;;;;;;5056951;28;20024;-75
2022/03/12 10:42:50;;;;;;;9.73;6.50;;;1.50;69.30;;;;;;5073866;28;20111;-76
2022/03/12 10:45:19;;;;;;;10.77;6.55;;;1.50;69.20;;;;;;5074224;28;20029;-77
2022/03/12 10:47:48;;;;;;;8.15;5.88;;;1.50;69.10;;;;;;5073741;28;20013;-77
2022/03/12 10:50:20;;;;;;;11.75;6.85;;;1.50;68.60;;;;;;5073020;28;20041;-78
2022/03/12 10:52:49;;;;;;;11.07;7.22;;;1.40;68.90;;;;;;5072886;28;20025;-79
2022/03/12 10:55:40;;;;;;;12.15;7.80;;;1.40;69.20;;;;;;5075630;28;20036;-77
2022/03/12 10:58:07;;;;;;;11.35;6.80;;;1.40;69.40;;;;;;5092871;28;20023;-76
2022/03/12 11:00:38;;;;;;;12.18;7.53;;;1.40;69.50;;;;;;5075415;28;20059;-77
2022/03/12 11:03:11;;;;;;;8.73;6.00;;;1.50;69.20;;;;;;5093792;28;20016;-75
2022/03/12 11:05:38;;;;;;;12.90;6.95;;;1.50;69.20;;;;;;5092741;28;20114;-77
2022/03/12 11:08:20;;;;;;;13.73;6.70;;;1.50;68.80;;;;;;5092901;28;20488;-78
2022/03/12 11:10:50;;;;;;;8.85;6.22;;;1.40;69.00;;;;;;5074610;28;20106;-77
2022/03/12 11:13:38;;;;;;;9.85;6.70;;;1.40;69.10;;;;;;5092737;28;20036;-77
2022/03/12 11:16:12;;;;;;;8.88;6.45;;;1.40;69.20;;;;;;5092914;28;20020;-77
2022/03/12 11:18:47;;;;;;;10.68;7.20;;;1.40;69.50;;;;;;5092701;28;20028;-76
2022/03/12 11:21:14;;;;;;;10.55;6.72;;;1.50;69.60;;;;;;5083610;28;20112;-75
2022/03/12 11:23:42;;;;;;;10.82;7.13;;;1.50;69.40;;;;;;5072478;28;20020;-76
2022/03/12 11:26:08;;;;;;;12.73;6.85;;;1.50;69.20;;;;;;5072328;28;20371;-76
2022/03/12 11:28:37;;;;;;;12.15;6.88;;;1.40;69.40;;;;;;5054266;28;20127;-78
2022/03/12 11:31:06;;;;;;;11.82;6.03;;;1.50;69.60;;;;;;5072132;28;20067;-77
2022/03/12 11:33:32;;;;;;;10.75;6.93;;;1.50;69.30;;;;;;5072850;28;20025;-76
2022/03/12 11:36:07;;;;;;;9.63;6.25;;;1.50;69.40;;;;;;5072552;28;20367;-79
2022/03/12 11:38:33;;;;;;;9.13;6.53;;;1.50;69.00;;;;;;5070835;28;20032;-79
2022/03/12 11:41:11;;;;;;;12.23;6.43;;;1.50;69.20;;;;;;5074150;28;20500;-78
2022/03/12 11:43:41;;;;;;;9.23;6.15;;;1.40;69.40;;;;;;5092090;28;20055;-76
2022/03/12 11:46:12;;;;;;;12.63;6.75;;;1.50;69.40;;;;;;5092231;28;20020;-76
2022/03/12 11:48:38;;;;;;;12.43;6.95;;;1.50;69.40;;;;;;5092087;28;20504;-76
2022/03/12 11:51:25;;;;;;;11.25;5.68;;;1.30;69.80;;;;;;5092332;28;20043;-78
2022/03/12 11:53:53;;;;;;;9.00;5.68;;;1.40;70.30;;;;;;5082003;28;20043;-78
2022/03/12 11:56:20;;;;;;;8.98;6.18;;;1.40;69.90;;;;;;5074167;28;20114;-77
2022/03/12 11:58:47;;;;;;;10.27;5.13;;;1.40;69.80;;;;;;5092072;28;20024;-75
2022/03/12 12:01:20;;;;;;;10.05;6.45;;;1.30;70.10;;;;;;5073835;28;20027;-76
2022/03/12 12:03:47;;;;;;;13.40;7.60;;;1.20;70.50;;;;;;5092003;28;20043;-76
2022/03/12 12:06:14;;;;;;;9.25;6.10;;;1.30;70.80;;;;;;5094888;28;20028;-78
2022/03/12 12:08:40;;;;;;;9.93;6.82;;;1.40;70.80;;;;;;5086558;28;20032;-77
2022/03/12 12:11:06;;;;;;;9.95;6.72;;;1.50;70.70;;;;;;5071480;28;20036;-79
2022/03/12 12:13:33;;;;;;;8.25;6.00;;;1.50;70.40;;;;;;5071744;28;20048;-75
2022/03/12 12:15:59;;;;;;;10.90;7.18;;;1.50;70.30;;;;;;5074780;28;20437;-75
2022/03/12 12:18:25;;;;;;;13.07;6.25;;;1.50;70.50;;;;;;5091781;28;20035;-77
2022/03/12 12:20:51;;;;;;;13.32;7.15;;;1.50;70.40;;;;;;5073557;28;20126;-77
2022/03/12 12:23:21;;;;;;;12.82;6.88;;;1.50;70.30;;;;;;5091761;28;20026;-79
2022/03/12 12:25:47;;;;;;;13.40;6.93;;;1.40;70.60;;;;;;5091855;28;20050;-77
2022/03/12 12:28:20;;;;;;;11.53;6.80;;;1.40;70.80;;;;;;5091885;28;20044;-78
2022/03/12 12:30:48;;;;;;;15.02;7.03;;;1.40;70.90;;;;;;5073806;28;20040;-79
2022/03/12 12:33:24;;;;;;;12.60;6.43;;;1.40;70.90;;;;;;5090364;28;20187;-80
2022/03/12 12:36:13;;;;;;;9.50;6.90;;;1.40;71.10;;;;;;5071966;28;20024;-78
2022/03/12 12:38:43;;;;;;;11.00;7.07;;;1.40;71.20;;;;;;5071771;28;20024;-76
2022/03/12 12:41:10;;;;;;;12.27;7.63;;;1.50;71.20;;;;;;5071736;28;20021;-77
2022/03/12 12:43:46;;;;;;;10.07;7.00;;;1.40;71.10;;;;;;5074611;28;20024;-75
2022/03/12 12:46:17;;;;;;;9.75;6.35;;;1.40;71.30;;;;;;5084036;28;20037;-77
2022/03/12 12:48:48;;;;;;;12.88;7.40;;;1.30;71.70;;;;;;5056928;28;20023;-78
2022/03/12 12:51:16;;;;;;;14.10;6.20;;;1.20;72.40;;;;;;5086024;28;20036;-80
2022/03/12 12:53:42;;;;;;;;;;;1.20;72.60;;;;;;5093490;28;20381;-77
2022/03/12 12:56:38;;;;;;;11.20;7.40;;;1.20;72.40;;;;;;5093715;28;19904;-77
2022/03/12 12:59:07;;;;;;;18.45;7.82;;;1.20;72.70;;;;;;5092300;28;20019;-77